Time;durP1;ratioP1;P1;durP2;ratioP2;P2;SDS_P1;SDS_P2;PMS_P1;PMS_P2;Temp;Humidity;BMP_temperature;BMP_pressure;BME280_temperature;BME280_humidity;BME280_pressure;Samples;Min_cycle;Max_cycle;Signal;HPM_P1;HPM_P2
2022/12/14 00:00:17;;;;;;;43.35;21.80;;;-3.90;99.90;;;;;;5034545;28;20174;-61
2022/12/14 00:02:44;;;;;;;36.88;21.20;;;-3.90;99.90;;;;;;5034245;28;20067;-62
2022/12/14 00:05:10;;;;;;;34.03;21.33;;;-3.90;99.90;;;;;;5033859;28;20053;-62
2022/12/14 00:07:37;;;;;;;39.45;20.95;;;-3.90;99.90;;;;;;5034661;28;20502;-61
2022/12/14 00:10:06;;;;;;;33.22;19.95;;;-3.90;99.90;;;;;;5049086;28;20052;-61
2022/12/14 00:12:33;;;;;;;34.55;20.08;;;-3.90;99.90;;;;;;5051224;28;20053;-61
2022/12/14 00:15:00;;;;;;;36.47;22.15;;;-3.90;99.90;;;;;;5033586;28;20128;-62
2022/12/14 00:17:28;;;;;;;40.60;22.27;;;-3.90;99.90;;;;;;5037077;28;20055;-61
2022/12/14 00:19:55;;;;;;;39.78;21.95;;;-3.90;99.90;;;;;;5055772;28;20041;-64
2022/12/14 00:22:22;;;;;;;37.58;20.48;;;-3.90;99.90;;;;;;5038089;28;20076;-62
2022/12/14 00:24:49;;;;;;;32.40;19.95;;;-4.00;99.90;;;;;;5036878;28;20049;-62
2022/12/14 00:27:17;;;;;;;36.58;20.83;;;-4.00;99.90;;;;;;5037633;28;20110;-62
2022/12/14 00:29:44;;;;;;;38.22;21.58;;;-4.00;99.90;;;;;;5053693;28;20063;-62
2022/12/14 00:32:11;;;;;;;42.45;22.73;;;-4.10;99.90;;;;;;5054855;28;20053;-63
2022/12/14 00:34:38;;;;;;;38.20;21.50;;;-4.10;99.90;;;;;;5037180;28;20059;-60
2022/12/14 00:37:05;;;;;;;36.83;20.63;;;-4.10;99.90;;;;;;5055057;28;20049;-61
2022/12/14 00:39:32;;;;;;;40.90;22.38;;;-4.20;99.90;;;;;;5054641;28;20095;-61
2022/12/14 00:41:59;;;;;;;41.88;22.50;;;-4.20;99.90;;;;;;5055499;28;20075;-62
2022/12/14 00:44:27;;;;;;;38.35;22.13;;;-4.20;99.90;;;;;;5037352;28;20065;-61
2022/12/14 00:46:54;;;;;;;38.80;21.20;;;-3.60;99.90;;;;;;5036821;28;20107;-62
2022/12/14 00:49:21;;;;;;;34.67;22.33;;;-4.20;99.90;;;;;;5036934;28;20079;-61
2022/12/14 00:51:48;;;;;;;34.47;20.40;;;-4.20;99.90;;;;;;5036876;28;20056;-62
2022/12/14 00:54:15;;;;;;;38.50;20.42;;;-4.20;99.90;;;;;;5054319;28;20102;-62
2022/12/14 00:56:42;;;;;;;37.47;19.63;;;-4.20;99.90;;;;;;5036364;28;20061;-62
2022/12/14 00:59:09;;;;;;;35.92;20.30;;;-4.20;99.90;;;;;;5036057;28;20083;-62
2022/12/14 01:01:37;;;;;;;37.67;22.55;;;-4.20;99.90;;;;;;5054223;28;20056;-63
2022/12/14 01:04:21;;;;;;;36.55;20.13;;;-4.20;99.90;;;;;;5037181;28;20045;-62
2022/12/14 01:06:49;;;;;;;37.65;21.63;;;-4.30;99.90;;;;;;5036197;28;20048;-61
2022/12/14 01:09:16;;;;;;;36.25;20.27;;;-4.30;99.90;;;;;;5054619;28;20112;-62
2022/12/14 01:11:44;;;;;;;35.00;19.63;;;-4.30;99.90;;;;;;5054647;28;20048;-61
2022/12/14 01:14:12;;;;;;;35.00;20.52;;;-4.30;99.90;;;;;;5035952;28;20052;-62
2022/12/14 01:16:41;;;;;;;37.08;21.60;;;-4.30;99.90;;;;;;5053914;28;20049;-63
2022/12/14 01:19:08;;;;;;;38.60;21.08;;;-4.40;99.90;;;;;;5036781;28;20052;-62
2022/12/14 01:21:35;;;;;;;38.33;20.88;;;-4.40;99.90;;;;;;5054132;28;20401;-62
2022/12/14 01:24:03;;;;;;;36.38;21.05;;;-4.50;99.90;;;;;;5054707;28;20052;-62
2022/12/14 01:26:32;;;;;;;31.40;19.85;;;-4.50;99.90;;;;;;5036659;28;20077;-62
2022/12/14 01:29:00;;;;;;;37.22;20.48;;;-4.60;99.90;;;;;;5052751;28;20060;-62
2022/12/14 01:31:29;;;;;;;31.05;19.05;;;-4.60;99.90;;;;;;5054139;28;20045;-62
2022/12/14 01:33:58;;;;;;;37.88;21.95;;;-4.70;99.90;;;;;;5053848;28;20448;-63
2022/12/14 01:36:27;;;;;;;41.47;20.45;;;-4.80;99.90;;;;;;5053308;28;20041;-62
2022/12/14 01:38:56;;;;;;;40.63;20.10;;;-4.80;99.90;;;;;;5054231;28;20452;-62
2022/12/14 01:41:26;;;;;;;39.22;22.00;;;-4.80;99.90;;;;;;5054259;28;20044;-62
2022/12/14 01:43:54;;;;;;;36.13;21.80;;;-4.90;99.90;;;;;;5033575;28;20083;-62
2022/12/14 01:46:28;;;;;;;35.53;20.98;;;-4.90;99.90;;;;;;5053872;28;20044;-62
2022/12/14 01:49:01;;;;;;;39.08;21.73;;;-5.00;99.90;;;;;;5035527;28;20052;-63
2022/12/14 01:51:31;;;;;;;38.85;20.88;;;-5.10;99.90;;;;;;5035811;28;20056;-62
2022/12/14 01:54:01;;;;;;;36.63;22.27;;;-5.20;99.90;;;;;;5052220;28;20057;-63
2022/12/14 01:56:30;;;;;;;37.03;20.42;;;-5.30;99.90;;;;;;5053185;28;20056;-64
2022/12/14 01:59:01;;;;;;;35.13;20.85;;;-5.30;99.90;;;;;;5035364;28;21638;-64
2022/12/14 02:01:28;;;;;;;41.03;22.38;;;-5.30;99.90;;;;;;5035076;28;20497;-63
2022/12/14 02:03:55;;;;;;;38.78;21.17;;;-5.30;99.90;;;;;;5053427;28;20049;-61
2022/12/14 02:06:28;;;;;;;45.30;22.05;;;-5.40;99.90;;;;;;5035606;28;20489;-62
2022/12/14 02:08:57;;;;;;;39.92;23.02;;;-5.50;99.90;;;;;;5053611;28;20704;-61
2022/12/14 02:11:31;;;;;;;39.08;21.70;;;-5.50;99.90;;;;;;5036467;28;20053;-62
2022/12/14 02:13:58;;;;;;;37.97;19.30;;;-5.50;99.90;;;;;;5051872;28;20415;-62
2022/12/14 02:16:25;;;;;;;40.67;20.73;;;-5.60;99.90;;;;;;5053181;28;20045;-62
2022/12/14 02:18:52;;;;;;;42.60;22.25;;;-5.60;99.90;;;;;;5035633;28;20051;-61
2022/12/14 02:21:25;;;;;;;44.00;22.48;;;-5.60;99.90;;;;;;5033807;28;20522;-62
2022/12/14 02:24:28;;;;;;;37.80;21.73;;;-5.60;99.90;;;;;;5052813;28;20416;-61
2022/12/14 02:27:26;;;;;;;43.35;22.00;;;-5.60;99.90;;;;;;5034873;28;20060;-61
2022/12/14 02:30:06;;;;;;;40.13;22.02;;;-5.70;99.90;;;;;;5050949;28;20075;-61
2022/12/14 02:32:54;;;;;;;39.47;21.35;;;-5.70;99.90;;;;;;5035374;28;20115;-62
2022/12/14 02:35:35;;;;;;;38.63;22.25;;;-5.70;99.90;;;;;;5052907;28;20559;-61
2022/12/14 02:38:14;;;;;;;37.65;22.13;;;-5.70;99.90;;;;;;5035325;28;20053;-61
2022/12/14 02:40:50;;;;;;;44.50;22.08;;;-5.70;99.90;;;;;;5034169;28;20052;-62
2022/12/14 02:43:24;;;;;;;41.97;23.15;;;-5.80;99.90;;;;;;5053068;28;20041;-61
2022/12/14 02:45:59;;;;;;;43.67;21.63;;;-5.80;99.90;;;;;;5034722;28;20053;-61
2022/12/14 02:48:30;;;;;;;39.75;21.92;;;-5.80;99.90;;;;;;5041160;28;20099;-61
2022/12/14 02:51:06;;;;;;;39.15;21.85;;;-5.80;99.90;;;;;;5050129;28;20044;-62
2022/12/14 02:53:38;;;;;;;31.52;19.42;;;-5.90;99.90;;;;;;5050403;28;20048;-62
2022/12/14 02:56:09;;;;;;;41.35;20.67;;;-5.90;99.90;;;;;;5050929;28;20163;-62
2022/12/14 02:58:39;;;;;;;36.45;20.65;;;-5.90;99.90;;;;;;5051208;28;20440;-62
2022/12/14 03:01:12;;;;;;;38.72;20.73;;;-5.90;99.90;;;;;;5050515;28;20389;-62
2022/12/14 03:03:40;;;;;;;35.05;20.40;;;-6.00;99.90;;;;;;5048332;28;20103;-61
2022/12/14 03:06:14;;;;;;;37.78;19.42;;;-6.10;99.90;;;;;;5034635;28;20079;-62
2022/12/14 03:08:43;;;;;;;43.30;21.58;;;-6.10;99.90;;;;;;5051076;28;20075;-62
2022/12/14 03:11:14;;;;;;;40.50;21.20;;;-6.10;99.90;;;;;;5050558;28;20053;-62
2022/12/14 03:13:48;;;;;;;39.08;22.70;;;-6.10;99.90;;;;;;5051921;28;20507;-62
2022/12/14 03:16:22;;;;;;;42.08;22.35;;;-6.10;99.90;;;;;;5052122;28;20075;-62
2022/12/14 03:18:55;;;;;;;36.72;19.45;;;-6.10;99.90;;;;;;5034854;28;20102;-62
2022/12/14 03:21:27;;;;;;;39.65;20.90;;;-6.10;99.90;;;;;;5032940;28;20107;-62
2022/12/14 03:23:56;;;;;;;36.78;19.73;;;-6.10;99.90;;;;;;5032841;28;20049;-62
2022/12/14 03:26:27;;;;;;;35.45;20.50;;;-6.10;99.90;;;;;;5052029;28;20523;-62
2022/12/14 03:28:59;;;;;;;36.65;21.02;;;-6.20;99.90;;;;;;5051204;28;20408;-62
2022/12/14 03:31:33;;;;;;;38.63;19.67;;;-6.20;99.90;;;;;;5034448;28;20048;-62
2022/12/14 03:34:05;;;;;;;36.95;20.00;;;-6.30;99.90;;;;;;5052156;28;20041;-61
2022/12/14 03:36:40;;;;;;;34.50;19.30;;;-6.30;99.90;;;;;;5034387;28;20075;-62
2022/12/14 03:39:10;;;;;;;37.00;20.10;;;-6.30;99.90;;;;;;5051516;28;20048;-62
2022/12/14 03:41:44;;;;;;;38.10;21.67;;;-6.40;99.90;;;;;;5033685;28;20049;-62
2022/12/14 03:44:22;;;;;;;41.38;20.67;;;-6.40;99.90;;;;;;5034103;28;20083;-62
2022/12/14 03:46:56;;;;;;;49.17;24.25;;;-6.40;99.90;;;;;;5033256;28;20110;-61
2022/12/14 03:49:37;;;;;;;43.50;21.02;;;-6.30;99.90;;;;;;5033642;28;20057;-62
2022/12/14 03:52:08;;;;;;;;;;;-6.30;99.90;;;;;;5051432;28;20127;-61
2022/12/14 03:54:43;;;;;;;;;;;-6.30;99.90;;;;;;5034652;28;19974;-61
2022/12/14 03:57:20;;;;;;;34.28;19.92;;;-6.30;99.90;;;;;;5033314;28;19920;-61
2022/12/14 03:59:52;;;;;;;38.10;21.23;;;-6.40;99.90;;;;;;5049936;28;20073;-61
2022/12/14 04:02:25;;;;;;;46.67;22.70;;;-6.40;99.90;;;;;;5033297;28;20057;-62
2022/12/14 04:04:59;;;;;;;40.25;21.55;;;-6.40;99.90;;;;;;5033893;28;20078;-61
2022/12/14 04:07:41;;;;;;;39.80;21.00;;;-6.50;99.90;;;;;;5051686;28;20064;-61
2022/12/14 04:21:28;;;;;;;41.58;24.05;;;-6.40;99.90;;;;;;5050692;28;20045;-62
2022/12/14 04:26:51;;;;;;;42.08;21.73;;;-6.40;99.90;;;;;;5050003;28;20033;-62
2022/12/14 04:32:09;;;;;;;43.90;22.10;;;-6.40;99.90;;;;;;5032507;28;20055;-63
2022/12/14 04:34:40;;;;;;;37.10;20.42;;;-6.50;99.90;;;;;;5051551;28;20052;-62
2022/12/14 04:37:12;;;;;;;45.85;23.55;;;-6.50;99.90;;;;;;5033706;28;20061;-62
2022/12/14 04:39:45;;;;;;;41.85;22.48;;;-6.50;99.90;;;;;;5051256;28;20218;-62
2022/12/14 04:42:15;;;;;;;47.15;26.35;;;-6.40;99.90;;;;;;5033609;28;20049;-62
2022/12/14 04:44:46;;;;;;;40.92;22.15;;;-6.50;99.90;;;;;;5050339;28;20051;-62
2022/12/14 04:47:16;;;;;;;43.67;23.02;;;-6.50;99.90;;;;;;5031794;28;20055;-61
2022/12/14 04:49:50;;;;;;;39.97;22.33;;;-6.50;99.90;;;;;;5027101;28;20049;-62
2022/12/14 04:52:24;;;;;;;41.72;20.95;;;-6.40;99.90;;;;;;5039865;28;20053;-62
2022/12/14 04:54:56;;;;;;;42.47;20.63;;;-6.40;99.90;;;;;;5042614;28;20045;-62
2022/12/14 04:57:31;;;;;;;43.30;21.35;;;-6.50;99.90;;;;;;5025559;28;20480;-62
2022/12/14 05:00:00;;;;;;;40.45;22.27;;;-6.50;99.90;;;;;;5027138;28;20049;-62
2022/12/14 05:02:43;;;;;;;45.90;21.75;;;-6.40;99.90;;;;;;5044799;28;20448;-61
2022/12/14 05:05:16;;;;;;;39.47;20.75;;;-6.50;99.90;;;;;;5034203;28;20076;-61
2022/12/14 05:07:50;;;;;;;43.90;22.83;;;-6.50;99.90;;;;;;5048122;28;20053;-61
2022/12/14 05:10:22;;;;;;;43.10;22.45;;;-6.60;99.90;;;;;;5028212;28;20050;-61
2022/12/14 05:13:00;;;;;;;48.20;22.95;;;-6.60;99.90;;;;;;5029091;28;20057;-61
2022/12/14 05:15:32;;;;;;;42.88;23.15;;;-6.60;99.90;;;;;;5033464;28;20059;-61
2022/12/14 05:18:02;;;;;;;41.90;21.67;;;-6.60;99.90;;;;;;5051084;28;20056;-61
2022/12/14 05:20:30;;;;;;;50.35;21.65;;;-5.90;99.90;;;;;;5049172;28;20056;-62
2022/12/14 05:22:58;;;;;;;44.95;21.50;;;-6.60;99.90;;;;;;5053637;28;20044;-61
2022/12/14 05:25:25;;;;;;;41.15;21.42;;;-6.50;99.90;;;;;;5048537;28;20053;-62
2022/12/14 05:27:52;;;;;;;37.78;20.20;;;-6.60;99.90;;;;;;5028945;28;20056;-61
2022/12/14 05:30:19;;;;;;;36.38;19.90;;;-6.60;99.90;;;;;;5051309;28;20048;-61
2022/12/14 05:32:46;;;;;;;40.90;21.35;;;-6.60;99.90;;;;;;5032317;28;20080;-61
2022/12/14 05:35:13;;;;;;;44.53;21.05;;;-6.60;99.90;;;;;;5047266;28;20044;-61
2022/12/14 05:37:42;;;;;;;41.42;20.48;;;-6.60;99.90;;;;;;5048326;28;20206;-61
2022/12/14 05:40:10;;;;;;;43.08;21.75;;;-6.50;99.90;;;;;;5026954;28;20110;-61
2022/12/14 05:42:37;;;;;;;40.22;21.35;;;-6.50;99.90;;;;;;5028139;28;20064;-61
2022/12/14 05:45:05;;;;;;;36.47;20.45;;;-6.60;99.90;;;;;;5050192;28;20041;-60
2022/12/14 05:47:32;;;;;;;37.30;20.70;;;-6.60;99.90;;;;;;5029000;28;20507;-60
2022/12/14 05:49:59;;;;;;;36.40;19.65;;;-6.60;99.90;;;;;;5032263;28;20048;-60
2022/12/14 05:52:26;;;;;;;37.67;20.42;;;-6.60;99.90;;;;;;5047314;28;20121;-61
2022/12/14 05:54:54;;;;;;;41.75;20.35;;;-6.60;99.90;;;;;;5049083;28;20045;-62
2022/12/14 05:57:21;;;;;;;37.67;21.00;;;-6.60;99.90;;;;;;5045751;28;20500;-62
2022/12/14 05:59:48;;;;;;;44.35;21.52;;;-6.60;99.90;;;;;;5051899;28;20052;-62
2022/12/14 06:02:15;;;;;;;35.83;19.23;;;-6.70;99.90;;;;;;5033712;28;20053;-62
2022/12/14 06:04:42;;;;;;;39.60;20.83;;;-6.70;99.90;;;;;;5028856;28;20079;-62
2022/12/14 06:07:11;;;;;;;38.80;19.92;;;-6.60;99.90;;;;;;5048702;28;20050;-62
2022/12/14 06:09:38;;;;;;;41.58;22.67;;;-6.60;99.90;;;;;;5042774;28;20092;-62
2022/12/14 06:12:07;;;;;;;38.17;19.83;;;-6.70;99.90;;;;;;5046817;28;20052;-61
2022/12/14 06:14:34;;;;;;;40.17;19.85;;;-6.70;99.90;;;;;;5031073;28;20484;-62
2022/12/14 06:17:01;;;;;;;30.98;18.35;;;-6.70;99.90;;;;;;5047673;28;20052;-61
2022/12/14 06:19:29;;;;;;;41.33;19.48;;;-6.70;99.90;;;;;;5029985;28;20512;-60
2022/12/14 06:21:56;;;;;;;41.63;20.67;;;-6.70;99.90;;;;;;5050009;28;20050;-61
2022/12/14 06:24:24;;;;;;;38.95;19.92;;;-6.70;99.90;;;;;;5028413;28;20049;-61
2022/12/14 06:26:51;;;;;;;37.88;19.27;;;-6.70;99.90;;;;;;5030766;28;20068;-61
2022/12/14 06:29:20;;;;;;;34.17;19.73;;;-6.70;99.90;;;;;;5031251;28;20052;-61
2022/12/14 06:31:47;;;;;;;40.30;20.55;;;-6.70;99.90;;;;;;5045812;28;20075;-61
2022/12/14 06:34:14;;;;;;;34.40;19.25;;;-6.80;99.90;;;;;;5045477;28;20071;-62
2022/12/14 06:36:42;;;;;;;38.55;20.15;;;-6.80;99.90;;;;;;5024896;28;20128;-62
2022/12/14 06:39:13;;;;;;;39.92;20.55;;;-6.80;99.90;;;;;;5045884;28;20046;-62
2022/12/14 06:41:41;;;;;;;40.10;21.92;;;-6.80;99.90;;;;;;5031545;28;20068;-62
2022/12/14 06:44:10;;;;;;;40.00;21.17;;;-6.80;99.90;;;;;;5026717;28;20045;-61
2022/12/14 06:46:40;;;;;;;45.92;22.38;;;-6.90;99.90;;;;;;5028921;28;20104;-61
2022/12/14 06:49:07;;;;;;;43.33;21.15;;;-6.90;99.90;;;;;;5030318;28;20057;-61
2022/12/14 06:51:39;;;;;;;45.45;22.02;;;-6.90;99.90;;;;;;5046031;28;20519;-61
2022/12/14 06:54:06;;;;;;;36.88;20.60;;;-6.90;99.90;;;;;;5026627;28;20129;-61
2022/12/14 06:56:34;;;;;;;39.72;20.70;;;-6.80;99.90;;;;;;5047223;28;20497;-61
2022/12/14 06:59:01;;;;;;;45.38;22.23;;;-6.90;99.90;;;;;;5027388;28;20411;-60
2022/12/14 07:01:28;;;;;;;45.40;24.40;;;-6.90;99.90;;;;;;5044900;28;20045;-61
2022/12/14 07:03:58;;;;;;;40.17;21.80;;;-6.80;99.90;;;;;;5047228;28;20481;-62
2022/12/14 07:06:27;;;;;;;43.50;21.07;;;-6.80;99.90;;;;;;5030317;28;20049;-62
2022/12/14 07:08:55;;;;;;;46.92;22.30;;;-6.80;99.90;;;;;;5050150;28;20320;-62
2022/12/14 07:11:23;;;;;;;42.17;21.60;;;-6.80;99.90;;;;;;5048330;28;20053;-61
2022/12/14 07:13:50;;;;;;;53.70;22.88;;;-6.90;99.90;;;;;;5030901;28;20080;-61
2022/12/14 07:16:18;;;;;;;40.40;22.08;;;-6.90;99.90;;;;;;5029860;28;20488;-60
2022/12/14 07:18:46;;;;;;;43.63;22.02;;;-6.90;99.90;;;;;;5044131;28;20111;-60
2022/12/14 07:21:16;;;;;;;47.50;21.95;;;-7.00;99.90;;;;;;5032708;28;20060;-61
2022/12/14 07:23:45;;;;;;;40.92;20.38;;;-7.00;99.90;;;;;;5032586;28;20056;-61
2022/12/14 07:26:15;;;;;;;37.28;20.25;;;-7.00;99.90;;;;;;5047758;28;20056;-61
2022/12/14 07:28:42;;;;;;;40.80;22.35;;;-7.00;99.90;;;;;;5034056;28;20060;-61
2022/12/14 07:31:13;;;;;;;45.15;21.48;;;-7.00;99.90;;;;;;5052052;28;20080;-61
2022/12/14 07:33:40;;;;;;;39.92;21.23;;;-7.10;99.90;;;;;;5050628;28;20068;-61
2022/12/14 07:36:10;;;;;;;40.38;21.38;;;-7.10;99.90;;;;;;5051604;28;20420;-61
2022/12/14 07:38:40;;;;;;;41.20;20.88;;;-7.00;99.90;;;;;;5032030;28;20053;-62
2022/12/14 07:41:09;;;;;;;43.15;22.95;;;-6.90;99.90;;;;;;5033439;28;20072;-62
2022/12/14 07:43:36;;;;;;;41.67;21.45;;;-6.90;99.90;;;;;;5034098;28;20049;-63
2022/12/14 07:46:06;;;;;;;40.22;21.27;;;-6.90;99.90;;;;;;5033689;28;20166;-62
2022/12/14 07:48:33;;;;;;;44.63;21.88;;;-6.80;99.90;;;;;;5033524;28;20057;-61
2022/12/14 07:51:05;;;;;;;41.10;20.55;;;-6.80;99.90;;;;;;5033703;28;20056;-63
2022/12/14 07:53:33;;;;;;;38.40;20.88;;;-6.80;99.90;;;;;;5033764;28;20045;-64
2022/12/14 07:56:03;;;;;;;39.28;22.83;;;-6.80;99.90;;;;;;5032527;28;20523;-61
2022/12/14 07:58:31;;;;;;;37.90;20.88;;;-6.70;99.90;;;;;;5034056;28;20550;-61
2022/12/14 08:01:10;;;;;;;38.33;21.80;;;-6.70;99.90;;;;;;5033918;28;20073;-62
2022/12/14 08:03:37;;;;;;;41.20;22.75;;;-6.80;99.90;;;;;;5033069;28;20087;-61
2022/12/14 08:06:05;;;;;;;42.50;23.15;;;-6.80;99.90;;;;;;5033835;28;20057;-61
2022/12/14 08:08:32;;;;;;;44.03;22.05;;;-6.80;99.90;;;;;;5049458;28;20084;-62
2022/12/14 08:11:00;;;;;;;40.13;21.40;;;-6.80;99.90;;;;;;5033192;28;20061;-61
2022/12/14 08:13:28;;;;;;;46.10;22.38;;;-6.70;99.90;;;;;;5051563;28;20044;-62
2022/12/14 08:15:55;;;;;;;47.10;23.83;;;-6.30;99.90;;;;;;5050938;28;20052;-62
2022/12/14 08:18:23;;;;;;;46.35;23.40;;;-5.60;99.90;;;;;;5033443;28;20045;-62
2022/12/14 08:20:50;;;;;;;47.95;23.50;;;-4.60;99.90;;;;;;5051321;28;20052;-62
2022/12/14 08:23:17;;;;;;;34.45;20.70;;;-3.60;99.90;;;;;;5032969;28;20053;-62
2022/12/14 08:25:44;;;;;;;41.40;20.77;;;-2.60;99.90;;;;;;5033701;28;20055;-62
2022/12/14 08:28:11;;;;;;;41.65;20.70;;;-1.80;99.90;;;;;;5051515;28;20055;-63
2022/12/14 08:30:40;;;;;;;39.22;20.80;;;-0.80;99.90;;;;;;5033155;28;20049;-62
2022/12/14 08:33:07;;;;;;;37.30;20.95;;;0.30;99.90;;;;;;5033374;28;20045;-62
2022/12/14 08:35:34;;;;;;;33.95;20.13;;;0.90;99.90;;;;;;5033037;28;20072;-62
2022/12/14 08:38:01;;;;;;;38.40;21.92;;;1.40;99.90;;;;;;5034345;28;20060;-62
2022/12/14 08:40:28;;;;;;;36.35;20.80;;;2.30;99.90;;;;;;5037355;28;20115;-62
2022/12/14 08:42:55;;;;;;;35.55;20.88;;;2.40;99.90;;;;;;5055308;28;20051;-62
2022/12/14 08:45:22;;;;;;;30.00;18.17;;;3.00;99.90;;;;;;5036834;28;20044;-63
2022/12/14 08:47:51;;;;;;;37.28;20.60;;;3.50;99.90;;;;;;5036869;28;20061;-62
2022/12/14 08:50:18;;;;;;;30.88;19.75;;;4.00;99.90;;;;;;5055087;28;20048;-62
2022/12/14 08:52:46;;;;;;;34.35;20.45;;;3.90;99.90;;;;;;5036580;28;20045;-62
2022/12/14 08:55:14;;;;;;;29.85;18.95;;;4.30;99.90;;;;;;5054857;28;20142;-62
2022/12/14 08:57:41;;;;;;;32.63;19.92;;;4.70;99.90;;;;;;5037158;28;20481;-63
2022/12/14 09:00:09;;;;;;;30.55;18.73;;;5.20;99.60;;;;;;5036767;28;20061;-62
2022/12/14 09:02:36;;;;;;;27.02;17.65;;;5.40;95.40;;;;;;5036517;28;20052;-62
2022/12/14 09:05:05;;;;;;;31.05;18.38;;;6.20;95.80;;;;;;5036040;28;20566;-62
2022/12/14 09:07:33;;;;;;;31.02;18.63;;;6.70;98.20;;;;;;5054683;28;20053;-62
2022/12/14 09:10:00;;;;;;;28.92;18.65;;;7.00;93.00;;;;;;5054045;28;20098;-63
2022/12/14 09:12:27;;;;;;;26.35;17.25;;;7.10;92.50;;;;;;5022600;28;20060;-62
2022/12/14 09:14:54;;;;;;;26.42;18.65;;;7.70;95.00;;;;;;5034774;28;20420;-62
2022/12/14 09:17:21;;;;;;;29.08;18.55;;;7.70;84.20;;;;;;5015396;28;20061;-62
2022/12/14 09:19:48;;;;;;;30.88;18.08;;;7.40;86.60;;;;;;5033707;28;21055;-63
2022/12/14 09:22:16;;;;;;;27.88;18.88;;;7.00;90.20;;;;;;5017147;28;20056;-62
2022/12/14 09:24:43;;;;;;;24.55;17.13;;;7.40;90.30;;;;;;5016695;28;20559;-64
2022/12/14 09:27:10;;;;;;;25.77;17.13;;;8.40;92.40;;;;;;5033912;28;20046;-62
2022/12/14 09:29:37;;;;;;;28.15;17.13;;;8.40;90.30;;;;;;5016762;28;20061;-63
2022/12/14 09:32:04;;;;;;;25.70;16.83;;;9.30;91.00;;;;;;5016547;28;20061;-63
2022/12/14 09:34:32;;;;;;;27.30;17.92;;;9.60;85.40;;;;;;5015945;28;20485;-63
2022/12/14 09:37:03;;;;;;;28.38;19.15;;;8.90;77.50;;;;;;5016738;28;20053;-63
2022/12/14 09:39:32;;;;;;;26.05;18.15;;;9.00;84.40;;;;;;5016293;28;20128;-63
2022/12/14 09:42:08;;;;;;;27.90;18.02;;;9.30;80.90;;;;;;5015969;28;20053;-63
2022/12/14 09:44:50;;;;;;;27.02;16.70;;;9.00;77.40;;;;;;5015781;28;20076;-63
2022/12/14 09:47:20;;;;;;;27.63;18.23;;;9.60;76.70;;;;;;5015728;28;20168;-63
2022/12/14 09:49:51;;;;;;;29.90;18.08;;;9.60;81.60;;;;;;5015517;28;20085;-63
2022/12/14 09:52:22;;;;;;;26.17;17.85;;;9.90;78.50;;;;;;5016641;28;20064;-63
2022/12/14 09:54:52;;;;;;;23.00;16.65;;;10.00;75.60;;;;;;5015633;28;20046;-63
2022/12/14 09:57:28;;;;;;;23.27;16.98;;;9.70;77.00;;;;;;5016271;28;20104;-62
2022/12/14 09:59:55;;;;;;;23.85;16.75;;;9.80;76.50;;;;;;5015253;28;20088;-62
2022/12/14 10:02:34;;;;;;;22.50;16.10;;;9.90;76.30;;;;;;5015957;28;20523;-62
2022/12/14 10:05:18;;;;;;;20.67;15.45;;;10.10;75.20;;;;;;5015135;28;20056;-62
2022/12/14 10:07:54;;;;;;;22.77;16.23;;;10.20;74.90;;;;;;5031458;28;20049;-63
2022/12/14 10:10:28;;;;;;;24.77;16.25;;;10.40;73.60;;;;;;5015512;28;20508;-63
2022/12/14 10:13:06;;;;;;;20.20;15.40;;;10.50;72.30;;;;;;5051010;28;20055;-63
2022/12/14 10:15:40;;;;;;;23.48;16.20;;;10.50;75.20;;;;;;5032718;28;20378;-62
2022/12/14 10:18:20;;;;;;;23.00;14.90;;;10.50;74.50;;;;;;5034003;28;20044;-63
2022/12/14 10:20:56;;;;;;;21.73;15.40;;;10.70;74.30;;;;;;5052535;28;20382;-61
2022/12/14 10:23:26;;;;;;;20.63;15.43;;;11.80;72.80;;;;;;5034669;28;20056;-64
2022/12/14 10:25:59;;;;;;;23.08;15.95;;;11.50;71.80;;;;;;5035147;28;20041;-63
2022/12/14 10:28:38;;;;;;;20.98;14.85;;;10.90;73.70;;;;;;5052157;28;20053;-63
2022/12/14 10:31:09;;;;;;;21.20;15.40;;;11.10;74.00;;;;;;5033581;28;20056;-63
2022/12/14 10:33:42;;;;;;;20.48;14.43;;;11.60;72.80;;;;;;5034926;28;20049;-62
2022/12/14 10:36:18;;;;;;;19.13;13.85;;;10.90;70.60;;;;;;5033009;28;20053;-62
2022/12/14 10:38:51;;;;;;;20.95;14.68;;;11.60;71.50;;;;;;5033566;28;20135;-63
2022/12/14 10:41:29;;;;;;;18.67;13.70;;;11.40;68.90;;;;;;5051514;28;20076;-63
2022/12/14 10:44:03;;;;;;;22.08;15.75;;;11.50;71.70;;;;;;5033573;28;20064;-62
2022/12/14 10:46:38;;;;;;;21.35;15.48;;;11.10;68.50;;;;;;5043837;28;20042;-63
2022/12/14 10:49:13;;;;;;;20.30;14.52;;;10.90;69.50;;;;;;5041209;28;20044;-62
2022/12/14 10:51:45;;;;;;;21.85;16.17;;;11.40;69.60;;;;;;5045318;28;20056;-62
2022/12/14 10:54:22;;;;;;;19.17;13.77;;;11.30;70.60;;;;;;5047133;28;20049;-63
2022/12/14 10:56:51;;;;;;;19.83;14.32;;;11.70;68.70;;;;;;5028802;28;20053;-63
2022/12/14 10:59:43;;;;;;;18.70;14.07;;;11.70;70.60;;;;;;5032066;28;20049;-62
2022/12/14 11:02:15;;;;;;;19.77;14.23;;;11.80;68.50;;;;;;5011058;28;20132;-63
2022/12/14 11:04:48;;;;;;;18.92;13.18;;;11.20;68.90;;;;;;5027935;28;20045;-61
2022/12/14 11:07:17;;;;;;;19.50;14.05;;;11.30;69.40;;;;;;5029049;28;20060;-63
2022/12/14 11:09:44;;;;;;;22.95;14.93;;;11.20;69.70;;;;;;5050145;28;20045;-62
2022/12/14 11:12:20;;;;;;;18.67;13.75;;;11.40;70.30;;;;;;5046381;28;20065;-62
2022/12/14 11:14:56;;;;;;;18.95;13.85;;;11.10;69.90;;;;;;5032119;28;20049;-63
2022/12/14 11:17:35;;;;;;;19.35;14.77;;;11.00;70.50;;;;;;5048550;28;20060;-63
2022/12/14 11:20:18;;;;;;;20.92;13.85;;;10.70;71.40;;;;;;5027756;28;20056;-62
2022/12/14 11:22:47;;;;;;;20.02;14.35;;;11.00;71.10;;;;;;5043909;28;20400;-63
2022/12/14 11:25:34;;;;;;;17.38;12.68;;;11.40;70.80;;;;;;5028099;28;20041;-64
2022/12/14 11:28:16;;;;;;;18.20;13.23;;;10.90;70.10;;;;;;5028718;28;20060;-64
2022/12/14 11:30:53;;;;;;;19.50;13.77;;;11.30;70.40;;;;;;5033323;28;20055;-64
2022/12/14 11:33:20;;;;;;;18.80;14.27;;;12.10;69.30;;;;;;5026152;28;20502;-64
2022/12/14 11:35:50;;;;;;;21.15;13.98;;;11.50;69.80;;;;;;5045242;28;20515;-63
2022/12/14 11:38:18;;;;;;;18.67;12.65;;;11.40;70.40;;;;;;5029066;28;20049;-63
2022/12/14 11:40:47;;;;;;;16.08;11.30;;;11.00;69.80;;;;;;5025378;28;20049;-63
2022/12/14 11:43:24;;;;;;;17.63;11.38;;;11.20;70.00;;;;;;5027709;28;20064;-62
2022/12/14 11:45:52;;;;;;;16.83;12.00;;;10.80;70.40;;;;;;5032014;28;20516;-62
2022/12/14 11:48:21;;;;;;;17.45;11.70;;;12.00;69.00;;;;;;5032275;28;20076;-62
2022/12/14 11:50:50;;;;;;;15.00;11.27;;;12.30;67.30;;;;;;5031691;28;20052;-64
2022/12/14 11:53:20;;;;;;;14.10;10.98;;;12.40;67.80;;;;;;5030607;28;20132;-63
2022/12/14 11:55:52;;;;;;;17.05;11.15;;;12.70;65.60;;;;;;5033282;28;20041;-62
2022/12/14 11:58:23;;;;;;;14.68;10.73;;;12.90;64.20;;;;;;5050410;28;20052;-64
2022/12/14 12:00:57;;;;;;;15.40;10.82;;;12.70;65.40;;;;;;5031735;28;20091;-62
2022/12/14 12:03:27;;;;;;;15.02;11.13;;;12.90;63.70;;;;;;5032450;28;20110;-63
2022/12/14 12:05:59;;;;;;;;;;;13.10;63.60;;;;;;5033682;28;20064;-63
2022/12/14 12:08:29;;;;;;;15.02;11.05;;;13.20;64.90;;;;;;5033530;28;19921;-63
2022/12/14 12:10:58;;;;;;;15.48;11.38;;;12.90;65.70;;;;;;5033203;28;20048;-64
2022/12/14 12:13:30;;;;;;;14.27;10.57;;;13.50;65.10;;;;;;5055745;28;20045;-64
2022/12/14 12:15:59;;;;;;;14.30;10.50;;;13.40;65.00;;;;;;5035332;28;20045;-63
2022/12/14 12:18:32;;;;;;;13.87;10.17;;;13.30;63.10;;;;;;5055446;28;20385;-62
2022/12/14 12:21:06;;;;;;;13.75;10.18;;;12.90;63.30;;;;;;5037557;28;20057;-63
2022/12/14 12:23:38;;;;;;;14.25;10.73;;;13.00;64.70;;;;;;5055090;28;20128;-62
2022/12/14 12:26:13;;;;;;;14.07;10.82;;;13.30;64.70;;;;;;5037298;28;20052;-62
2022/12/14 12:28:45;;;;;;;13.40;9.57;;;13.90;64.40;;;;;;5055798;28;20052;-63
2022/12/14 12:31:21;;;;;;;13.93;10.07;;;13.40;63.70;;;;;;5055406;28;20048;-64
2022/12/14 12:33:52;;;;;;;12.73;9.95;;;13.30;63.10;;;;;;5037629;28;20102;-64
2022/12/14 12:36:22;;;;;;;13.00;9.85;;;13.80;64.60;;;;;;5036854;28;20056;-63
2022/12/14 12:39:04;;;;;;;15.80;11.27;;;13.70;63.50;;;;;;5054080;28;20052;-63
2022/12/14 12:41:44;;;;;;;15.00;11.10;;;13.30;63.10;;;;;;5036863;28;20052;-63
2022/12/14 12:44:25;;;;;;;13.75;10.50;;;13.30;64.00;;;;;;5052619;28;20488;-63
2022/12/14 12:47:04;;;;;;;13.48;10.57;;;12.60;65.90;;;;;;5037490;28;20064;-63
2022/12/14 12:49:33;;;;;;;15.38;12.02;;;12.90;65.50;;;;;;5037122;28;20057;-63
2022/12/14 12:52:03;;;;;;;15.48;10.88;;;12.90;66.70;;;;;;5036128;28;20053;-63
2022/12/14 12:54:35;;;;;;;15.20;10.75;;;12.90;66.90;;;;;;5053203;28;20515;-63
2022/12/14 12:57:05;;;;;;;13.27;10.38;;;13.10;65.10;;;;;;5036346;28;20055;-63
2022/12/14 12:59:40;;;;;;;18.33;12.32;;;13.30;66.10;;;;;;5037330;28;20510;-63
2022/12/14 13:02:18;;;;;;;15.75;11.52;;;13.20;65.60;;;;;;5036638;28;20049;-63